createdAt,value
2019-04-03T00:01:16.980Z,156.40
2019-04-03T00:03:44.139Z,156.78
2019-04-03T00:06:11.438Z,155.93
2019-04-03T00:08:39.206Z,154.78
2019-04-03T00:11:08.641Z,156.18
2019-04-03T00:13:35.351Z,155.00
2019-04-03T00:16:02.814Z,157.10
2019-04-03T00:18:29.879Z,155.80
2019-04-03T00:20:56.937Z,156.43
2019-04-03T00:23:24.151Z,156.47
2019-04-03T00:25:52.380Z,156.12
2019-04-03T00:28:22.024Z,155.72
2019-04-03T00:30:49.288Z,156.18
2019-04-03T00:33:16.337Z,156.18
2019-04-03T00:35:43.427Z,156.37
2019-04-03T00:38:10.483Z,157.75
2019-04-03T00:40:37.995Z,156.45
2019-04-03T00:43:05.049Z,156.95
2019-04-03T00:45:32.616Z,156.82
2019-04-03T00:47:59.873Z,156.72
2019-04-03T00:50:27.198Z,156.57
2019-04-03T00:52:54.244Z,156.50
2019-04-03T00:55:21.293Z,156.07
2019-04-03T00:57:48.331Z,155.25
2019-04-03T01:00:16.315Z,155.93
2019-04-03T01:02:43.493Z,154.95
2019-04-03T01:05:11.066Z,155.12
2019-04-03T01:07:38.109Z,156.22
2019-04-03T01:10:05.441Z,154.60
2019-04-03T01:12:32.627Z,155.40
2019-04-03T01:15:01.636Z,154.75
2019-04-03T01:17:29.194Z,154.78
2019-04-03T01:19:56.314Z,155.70
2019-04-03T01:22:23.874Z,156.57
2019-04-03T01:24:50.869Z,155.25
2019-04-03T01:27:17.903Z,155.78
2019-04-03T01:29:45.333Z,155.93
2019-04-03T01:32:15.494Z,155.40
2019-04-03T01:34:41.518Z,155.10
2019-04-03T01:37:09.109Z,155.43
2019-04-03T01:39:36.182Z,155.87
2019-04-03T01:42:03.286Z,155.48
2019-04-03T01:44:33.432Z,155.48
2019-04-03T01:47:00.841Z,156.10
2019-04-03T01:49:31.425Z,154.53
2019-04-03T01:52:00.895Z,158.80
2019-04-03T01:54:28.232Z,155.70
2019-04-03T01:56:55.378Z,155.67
2019-04-03T01:59:22.437Z,157.50
2019-04-03T02:01:49.787Z,156.02
2019-04-03T02:04:16.844Z,156.15
2019-04-03T02:06:44.384Z,156.18
2019-04-03T02:09:11.524Z,156.02
2019-04-03T02:11:40.479Z,156.00
2019-04-03T02:14:07.529Z,156.93
2019-04-03T02:16:34.533Z,156.72
2019-04-03T02:19:01.640Z,156.82
2019-04-03T02:21:29.051Z,156.60
2019-04-03T02:23:57.514Z,156.02
2019-04-03T02:26:24.803Z,155.80
2019-04-03T02:28:52.223Z,156.35
2019-04-03T02:31:20.235Z,155.85
2019-04-03T02:33:47.957Z,154.65
2019-04-03T02:36:16.100Z,156.00
2019-04-03T02:38:43.593Z,155.35
2019-04-03T02:41:10.699Z,155.25
2019-04-03T02:43:37.774Z,155.95
2019-04-03T02:46:05.159Z,157.22
2019-04-03T02:48:37.370Z,157.32
2019-04-03T02:51:02.212Z,156.57
2019-04-03T02:53:30.812Z,156.63
2019-04-03T02:55:58.210Z,156.20
2019-04-03T02:58:25.339Z,155.43
2019-04-03T03:00:53.015Z,157.15
2019-04-03T03:03:20.183Z,156.87
2019-04-03T03:05:47.207Z,156.50
2019-04-03T03:08:15.227Z,156.12
2019-04-03T03:10:42.449Z,155.50
2019-04-03T03:13:09.767Z,155.85
2019-04-03T03:15:37.972Z,157.15
2019-04-03T03:18:04.980Z,155.05
2019-04-03T03:20:33.934Z,157.75
2019-04-03T03:23:08.454Z,156.02
2019-04-03T03:25:46.811Z,155.48
2019-04-03T03:28:16.291Z,155.87
2019-04-03T03:30:54.913Z,156.65
2019-04-03T03:33:31.029Z,156.35
2019-04-03T03:35:47.187Z,155.30
2019-04-03T03:38:15.781Z,156.85
2019-04-03T03:40:47.307Z,156.47
2019-04-03T03:43:15.051Z,155.18
2019-04-03T03:45:42.571Z,156.55
2019-04-03T03:48:11.036Z,156.65
2019-04-03T03:50:39.079Z,156.32
2019-04-03T03:53:10.192Z,157.35
2019-04-03T03:55:36.714Z,159.03
2019-04-03T03:58:06.090Z,157.00
2019-04-03T04:00:35.517Z,156.30
2019-04-03T04:03:03.514Z,158.18
2019-04-03T04:05:30.548Z,157.85
2019-04-03T04:07:57.868Z,157.37
2019-04-03T04:10:27.712Z,157.55
2019-04-03T04:12:56.219Z,157.75
2019-04-03T04:15:23.793Z,156.30
2019-04-03T04:17:52.368Z,157.00
2019-04-03T04:20:19.888Z,155.40
2019-04-03T04:22:55.117Z,156.35
2019-04-03T04:25:30.957Z,158.50
2019-04-03T04:28:03.557Z,156.60
2019-04-03T04:30:31.276Z,155.63
2019-04-03T04:32:59.915Z,157.80
2019-04-03T04:35:27.399Z,156.65
2019-04-03T04:37:56.761Z,157.10
2019-04-03T04:40:24.166Z,156.28
2019-04-03T04:42:52.635Z,156.00
2019-04-03T04:45:19.696Z,157.40
2019-04-03T04:47:46.905Z,156.72
2019-04-03T04:50:20.288Z,156.70
2019-04-03T04:52:48.016Z,160.03
2019-04-03T04:55:16.129Z,158.63
2019-04-03T04:57:43.246Z,157.00
2019-04-03T05:00:10.822Z,159.48
2019-04-03T05:02:39.073Z,158.05
2019-04-03T05:05:08.489Z,159.63
2019-04-03T05:07:35.274Z,157.93
2019-04-03T05:10:05.899Z,156.85
2019-04-03T05:12:33.558Z,156.02
2019-04-03T05:15:00.588Z,157.90
2019-04-03T05:17:27.693Z,158.37
2019-04-03T05:19:55.339Z,156.35
2019-04-03T05:22:23.760Z,158.60
2019-04-03T05:24:54.351Z,159.18
2019-04-03T05:27:22.871Z,157.70
2019-04-03T05:29:52.872Z,156.47
2019-04-03T05:32:20.303Z,155.52
2019-04-03T05:34:48.002Z,155.15
2019-04-03T05:37:19.710Z,156.40
2019-04-03T05:39:45.944Z,155.22
2019-04-03T05:42:13.011Z,155.90
2019-04-03T05:44:40.204Z,154.60
2019-04-03T05:47:07.862Z,159.70
2019-04-03T05:49:36.053Z,157.82
2019-04-03T05:52:04.706Z,157.00
2019-04-03T05:54:31.936Z,156.18
2019-04-03T05:56:59.041Z,157.80
2019-04-03T05:59:26.095Z,154.97
2019-04-03T06:01:53.127Z,155.22
2019-04-03T06:04:20.330Z,156.60
2019-04-03T06:06:47.865Z,157.27
2019-04-03T06:09:15.025Z,160.43
2019-04-03T06:11:42.087Z,158.07
2019-04-03T06:14:10.328Z,158.87
2019-04-03T06:16:37.618Z,156.30
2019-04-03T06:19:06.425Z,157.78
2019-04-03T06:21:33.774Z,156.97
2019-04-03T06:24:00.768Z,157.07
2019-04-03T06:26:29.599Z,155.78
2019-04-03T06:28:56.756Z,156.65
2019-04-03T06:31:24.343Z,156.57
2019-04-03T06:33:54.005Z,156.30
2019-04-03T06:36:21.253Z,156.50
2019-04-03T06:38:48.807Z,156.57
2019-04-03T06:41:16.188Z,156.28
2019-04-03T06:43:49.124Z,158.95
2019-04-03T06:46:14.766Z,158.50
2019-04-03T06:48:41.840Z,156.60
2019-04-03T06:51:08.848Z,158.55
2019-04-03T06:53:35.940Z,158.03
2019-04-03T06:56:03.116Z,160.37
2019-04-03T06:58:38.140Z,158.50
2019-04-03T07:00:59.586Z,157.72
2019-04-03T07:03:26.978Z,157.95
2019-04-03T07:05:54.332Z,158.37
2019-04-03T07:08:29.355Z,156.12
2019-04-03T07:10:55.274Z,157.93
2019-04-03T07:13:23.755Z,157.07
2019-04-03T07:15:50.801Z,157.97
2019-04-03T07:18:19.855Z,156.63
2019-04-03T07:20:47.366Z,155.05
2019-04-03T07:23:14.370Z,155.63
2019-04-03T07:25:41.755Z,156.12
2019-04-03T07:28:09.530Z,154.60
2019-04-03T07:30:36.801Z,154.95
2019-04-03T07:33:05.807Z,156.45
2019-04-03T07:35:33.504Z,153.60
2019-04-03T07:38:00.521Z,157.85
2019-04-03T07:40:27.949Z,157.75
2019-04-03T07:42:55.989Z,157.07
2019-04-03T07:45:27.742Z,159.27
2019-04-03T07:47:54.812Z,158.15
2019-04-03T07:50:22.297Z,157.75
2019-04-03T07:52:49.331Z,156.15
2019-04-03T07:55:16.369Z,155.93
2019-04-03T07:57:46.167Z,157.78
2019-04-03T08:00:14.921Z,156.22
2019-04-03T08:02:47.308Z,156.02
2019-04-03T08:05:13.494Z,157.72
2019-04-03T08:07:40.580Z,157.80
2019-04-03T08:10:08.261Z,158.40
2019-04-03T08:12:35.887Z,156.10
2019-04-03T08:15:04.179Z,159.27
2019-04-03T08:17:31.371Z,157.00
2019-04-03T08:19:58.733Z,156.43
2019-04-03T08:22:25.920Z,157.05
2019-04-03T08:24:53.814Z,155.80
2019-04-03T08:27:23.455Z,157.67
2019-04-03T08:29:52.116Z,157.15
2019-04-03T08:32:19.521Z,156.75
2019-04-03T08:34:47.546Z,156.72
2019-04-03T08:37:15.997Z,157.65
2019-04-03T08:39:44.005Z,158.95
2019-04-03T08:42:15.045Z,155.18
2019-04-03T08:44:42.181Z,154.78
2019-04-03T08:47:13.618Z,153.93
2019-04-03T08:49:40.868Z,155.55
2019-04-03T08:52:08.278Z,154.03
2019-04-03T08:54:35.454Z,157.93
2019-04-03T08:57:03.362Z,155.22
2019-04-03T08:59:30.584Z,156.78
2019-04-03T09:01:57.625Z,156.43
2019-04-03T09:04:24.778Z,156.28
2019-04-03T09:06:54.139Z,155.35
2019-04-03T09:09:20.818Z,157.12
2019-04-03T09:11:49.711Z,151.45
2019-04-03T09:14:19.375Z,149.38
2019-04-03T09:16:46.255Z,148.95
2019-04-03T09:19:13.594Z,148.62
2019-04-03T09:21:41.585Z,148.85
2019-04-03T09:24:09.251Z,146.90
2019-04-03T09:26:38.031Z,146.72
2019-04-03T09:29:05.337Z,146.87
2019-04-03T09:31:32.365Z,145.70
2019-04-03T09:33:59.521Z,148.13
2019-04-03T09:36:26.971Z,147.37
2019-04-03T09:38:54.529Z,145.97
2019-04-03T09:41:21.599Z,146.10
2019-04-03T09:43:49.734Z,146.68
2019-04-03T09:46:16.828Z,147.65
2019-04-03T09:48:43.882Z,148.62
2019-04-03T09:51:11.042Z,150.47
2019-04-03T09:53:38.814Z,150.22
2019-04-03T09:56:08.005Z,149.75
2019-04-03T09:58:35.819Z,149.87
2019-04-03T10:01:06.085Z,148.97
2019-04-03T10:03:35.863Z,148.10
2019-04-03T10:06:03.352Z,148.38
2019-04-03T10:08:30.819Z,149.53
2019-04-03T10:10:58.102Z,149.72
2019-04-03T10:13:26.325Z,148.13
2019-04-03T10:15:53.772Z,148.40
2019-04-03T10:18:22.151Z,150.57
2019-04-03T10:20:49.787Z,147.82
2019-04-03T10:23:17.275Z,145.25
2019-04-03T10:25:44.315Z,146.55
2019-04-03T10:28:14.801Z,145.75
2019-04-03T10:30:41.408Z,144.80
2019-04-03T10:33:10.005Z,144.10
2019-04-03T10:35:38.905Z,146.22
2019-04-03T10:38:06.331Z,146.07
2019-04-03T10:40:34.223Z,145.43
2019-04-03T10:43:04.619Z,144.95
2019-04-03T10:45:31.600Z,144.90
2019-04-03T10:47:59.048Z,146.05
2019-04-03T10:50:26.339Z,144.37
2019-04-03T10:52:54.672Z,145.70
2019-04-03T10:55:25.862Z,145.75
2019-04-03T10:57:54.402Z,146.68
2019-04-03T11:00:22.087Z,146.10
2019-04-03T11:02:50.418Z,146.15
2019-04-03T11:05:17.776Z,145.07
2019-04-03T11:07:45.439Z,145.60
2019-04-03T11:10:13.522Z,145.00
2019-04-03T11:12:41.992Z,146.68
2019-04-03T11:15:12.641Z,146.20
2019-04-03T11:17:40.546Z,148.82
2019-04-03T11:20:11.941Z,146.95
2019-04-03T11:22:43.398Z,146.75
2019-04-03T11:25:14.775Z,148.07
2019-04-03T11:27:44.778Z,148.85
2019-04-03T11:30:18.210Z,153.20
2019-04-03T11:32:44.018Z,147.68
2019-04-03T11:35:11.696Z,147.65
2019-04-03T11:37:40.876Z,149.75
2019-04-03T11:40:12.083Z,149.72
2019-04-03T11:42:39.248Z,148.70
2019-04-03T11:45:07.061Z,150.80
2019-04-03T11:47:35.002Z,153.82
2019-04-03T11:50:02.329Z,153.15
2019-04-03T11:52:29.785Z,153.20
2019-04-03T11:54:57.269Z,153.60
2019-04-03T11:57:26.813Z,152.38
2019-04-03T11:59:55.538Z,151.30
2019-04-03T12:02:23.891Z,151.42
2019-04-03T12:04:50.876Z,153.07
2019-04-03T12:07:18.646Z,154.05
2019-04-03T12:09:45.974Z,153.18
2019-04-03T12:12:13.508Z,152.75
2019-04-03T12:14:40.718Z,151.78
2019-04-03T12:17:13.581Z,150.40
2019-04-03T12:19:41.336Z,153.10
2019-04-03T12:22:08.910Z,151.65
2019-04-03T12:24:36.292Z,153.42
2019-04-03T12:27:03.826Z,154.55
2019-04-03T12:29:37.560Z,152.53
2019-04-03T12:32:09.045Z,152.75
2019-04-03T12:34:38.637Z,152.30
2019-04-03T12:37:09.364Z,152.27
2019-04-03T12:39:46.232Z,153.60
2019-04-03T12:42:19.981Z,155.82
2019-04-03T12:44:52.119Z,154.47
2019-04-03T12:47:32.062Z,154.75
2019-04-03T12:50:03.097Z,152.80
2019-04-03T12:52:32.029Z,151.53
2019-04-03T12:55:00.869Z,153.25
2019-04-03T12:57:28.317Z,153.10
2019-04-03T12:59:55.752Z,154.45
2019-04-03T13:02:25.018Z,157.10
2019-04-03T13:04:52.037Z,153.50
2019-04-03T13:07:29.543Z,149.87
2019-04-03T13:09:59.100Z,153.05
2019-04-03T13:12:27.988Z,150.57
2019-04-03T13:14:55.289Z,151.72
2019-04-03T13:17:22.565Z,151.10
2019-04-03T13:19:55.129Z,151.32
2019-04-03T13:22:22.479Z,154.78
2019-04-03T13:24:50.124Z,152.97
2019-04-03T13:27:18.844Z,150.70
2019-04-03T13:29:47.023Z,152.47
2019-04-03T13:32:16.449Z,154.05
2019-04-03T13:34:43.314Z,154.82
2019-04-03T13:37:11.761Z,154.30
2019-04-03T13:39:39.349Z,153.93
2019-04-03T13:42:07.289Z,154.20
2019-04-03T13:44:36.790Z,155.65
2019-04-03T13:47:04.381Z,153.87
2019-04-03T13:52:49.650Z,155.50
2019-04-03T13:55:18.832Z,155.48
2019-04-03T13:57:46.953Z,157.37
2019-04-03T14:00:21.891Z,155.95
2019-04-03T14:02:45.999Z,155.25
2019-04-03T14:05:13.312Z,156.18
2019-04-03T14:07:41.871Z,154.12
2019-04-03T14:10:11.002Z,154.38
2019-04-03T14:12:44.198Z,155.65
2019-04-03T14:15:10.153Z,153.85
2019-04-03T14:17:37.313Z,157.52
2019-04-03T14:20:05.080Z,154.27
2019-04-03T14:22:32.564Z,152.93
2019-04-03T14:25:01.997Z,154.65
2019-04-03T14:27:31.256Z,155.97
2019-04-03T14:30:01.194Z,153.07
2019-04-03T14:32:28.641Z,153.93
2019-04-03T14:35:05.312Z,154.30
2019-04-03T14:37:26.721Z,154.72
2019-04-03T14:39:54.417Z,153.90
2019-04-03T14:42:21.876Z,154.87
2019-04-03T14:44:49.362Z,154.38
2019-04-03T14:47:16.926Z,154.05
2019-04-03T14:49:44.925Z,154.75
2019-04-03T14:52:13.176Z,154.85
2019-04-03T14:55:20.288Z,151.87
2019-04-03T14:58:26.894Z,152.70
2019-04-03T15:00:54.307Z,149.87
2019-04-03T15:03:21.864Z,150.47
2019-04-03T15:05:49.148Z,150.90
2019-04-03T15:08:16.414Z,152.62
2019-04-03T15:10:43.844Z,149.35
2019-04-03T15:13:14.459Z,151.10
2019-04-03T15:15:42.390Z,150.80
2019-04-03T15:18:10.586Z,152.05
2019-04-03T15:20:38.467Z,151.15
2019-04-03T15:23:06.566Z,150.12
2019-04-03T15:25:34.324Z,149.35
2019-04-03T15:28:01.849Z,148.20
2019-04-03T15:30:29.523Z,151.15
2019-04-03T15:32:56.595Z,149.45
2019-04-03T15:35:24.315Z,148.17
2019-04-03T15:37:52.514Z,148.17
2019-04-03T15:40:20.796Z,151.50
2019-04-03T15:42:48.093Z,147.20
2019-04-03T15:45:16.192Z,149.00
2019-04-03T15:47:46.806Z,150.00
2019-04-03T15:50:16.284Z,148.87
2019-04-03T15:52:48.252Z,147.57
2019-04-03T15:55:18.704Z,150.90
2019-04-03T15:57:51.736Z,150.50
2019-04-03T16:00:18.021Z,152.17
2019-04-03T16:02:47.000Z,153.00
2019-04-03T16:05:17.855Z,150.80
2019-04-03T16:07:48.769Z,148.60
2019-04-03T16:10:21.766Z,147.95
2019-04-03T16:12:50.976Z,152.57
2019-04-03T16:15:20.206Z,148.43
2019-04-03T16:17:54.384Z,152.38
2019-04-03T16:20:25.288Z,150.90
2019-04-03T16:22:54.850Z,146.85
2019-04-03T16:25:25.514Z,148.22
2019-04-03T16:27:54.552Z,145.50
2019-04-03T16:30:21.868Z,148.20
2019-04-03T16:32:50.136Z,146.45
2019-04-03T16:35:17.569Z,148.17
2019-04-03T16:37:44.748Z,148.25
2019-04-03T16:40:16.933Z,145.32
2019-04-03T16:42:47.591Z,145.72
2019-04-03T16:45:14.813Z,146.70
2019-04-03T16:47:45.260Z,147.05
2019-04-03T16:50:13.717Z,147.75
2019-04-03T16:52:41.166Z,149.15
2019-04-03T16:55:08.587Z,147.37
2019-04-03T16:57:39.401Z,148.32
2019-04-03T17:00:10.039Z,146.70
2019-04-03T17:02:39.418Z,148.47
2019-04-03T17:05:10.462Z,148.02
2019-04-03T17:07:39.179Z,150.22
2019-04-03T17:10:09.413Z,149.10
2019-04-03T17:12:35.922Z,148.95
2019-04-03T17:15:06.744Z,150.90
2019-04-03T17:17:33.922Z,151.00
2019-04-03T17:20:01.411Z,148.55
2019-04-03T17:22:28.727Z,147.87
2019-04-03T17:24:56.537Z,148.32
2019-04-03T17:27:29.658Z,146.90
2019-04-03T17:29:56.196Z,149.07
2019-04-03T17:32:24.657Z,147.45
2019-04-03T17:34:53.692Z,146.55
2019-04-03T17:37:25.481Z,147.62
2019-04-03T17:39:53.607Z,147.85
2019-04-03T17:42:20.804Z,147.43
2019-04-03T17:44:48.064Z,147.82
2019-04-03T17:47:19.415Z,147.17
2019-04-03T17:49:47.499Z,146.65
2019-04-03T17:52:14.936Z,147.47
2019-04-03T17:54:42.135Z,146.47
2019-04-03T17:57:09.244Z,148.17
2019-04-03T17:59:41.550Z,149.60
2019-04-03T18:02:12.411Z,149.25
2019-04-03T18:04:42.505Z,148.65
2019-04-03T18:07:11.932Z,149.93
2019-04-03T18:09:41.804Z,147.45
2019-04-03T18:12:07.892Z,147.90
2019-04-03T18:14:36.118Z,148.68
2019-04-03T18:17:03.923Z,149.00
2019-04-03T18:19:37.840Z,147.30
2019-04-03T18:22:07.536Z,150.12
2019-04-03T18:24:39.436Z,147.85
2019-04-03T18:27:08.000Z,147.65
2019-04-03T18:29:37.314Z,148.97
2019-04-03T18:32:07.476Z,149.45
2019-04-03T18:34:37.448Z,146.35
2019-04-03T18:37:07.347Z,149.65
2019-04-03T18:39:36.759Z,148.68
2019-04-03T18:42:06.296Z,149.77
2019-04-03T18:44:36.627Z,148.30
2019-04-03T18:47:04.954Z,147.68
2019-04-03T18:49:35.108Z,148.47
2019-04-03T18:52:11.337Z,148.00
2019-04-03T18:54:45.651Z,152.25
2019-04-03T18:57:28.276Z,148.00
2019-04-03T18:59:56.472Z,147.47
2019-04-03T19:02:26.918Z,148.02
2019-04-03T19:05:02.248Z,148.45
2019-04-03T19:07:33.662Z,148.65
2019-04-03T19:10:08.024Z,147.82
2019-04-03T19:12:36.216Z,149.42
2019-04-03T19:15:04.297Z,150.45
2019-04-03T19:17:35.032Z,149.05
2019-04-03T19:20:11.284Z,147.55
2019-04-03T19:23:01.563Z,148.25
2019-04-03T19:25:38.276Z,148.85
2019-04-03T19:28:05.912Z,147.90
2019-04-03T19:30:40.805Z,147.30
2019-04-03T19:33:09.774Z,147.87
2019-04-03T19:35:37.241Z,147.10
2019-04-03T19:38:05.079Z,147.47
2019-04-03T19:40:51.473Z,147.13
2019-04-03T19:43:18.568Z,147.05
2019-04-03T19:45:46.791Z,147.62
2019-04-03T19:48:14.010Z,148.87
2019-04-03T19:50:42.443Z,148.10
2019-04-03T19:53:12.949Z,147.30
2019-04-03T19:55:39.598Z,146.82
2019-04-03T19:58:06.907Z,147.93
2019-04-03T20:00:35.502Z,149.42
2019-04-03T20:03:04.790Z,149.75
2019-04-03T20:05:31.912Z,149.12
2019-04-03T20:07:59.452Z,148.97
2019-04-03T20:10:27.004Z,147.10
2019-04-03T20:12:54.369Z,147.62
2019-04-03T20:15:23.391Z,149.53
2019-04-03T20:17:50.639Z,150.38
2019-04-03T20:20:17.957Z,148.55
2019-04-03T20:22:47.768Z,149.38
2019-04-03T20:25:15.349Z,148.55
2019-04-03T20:27:42.852Z,149.02
2019-04-03T20:30:22.749Z,148.82
2019-04-03T20:32:50.013Z,145.82
2019-04-03T20:35:18.651Z,145.95
2019-04-03T20:37:52.538Z,145.38
2019-04-03T20:40:25.251Z,144.40
2019-04-03T20:43:00.765Z,144.62
2019-04-03T20:45:34.507Z,146.25
2019-04-03T20:48:03.485Z,144.70
2019-04-03T20:50:43.287Z,145.02
2019-04-03T20:53:17.140Z,145.53
2019-04-03T20:56:34.154Z,146.75
2019-04-03T20:59:11.034Z,144.95
2019-04-03T21:01:42.375Z,146.35
2019-04-03T21:04:09.569Z,147.78
2019-04-03T21:06:37.432Z,146.95
2019-04-03T21:09:05.766Z,149.65
2019-04-03T21:11:37.095Z,150.68
2019-04-03T21:14:06.036Z,148.97
2019-04-03T21:16:33.646Z,147.75
2019-04-03T21:19:05.055Z,147.20
2019-04-03T21:21:32.662Z,147.68
2019-04-03T21:24:03.953Z,147.20
2019-04-03T21:26:32.022Z,146.15
2019-04-03T21:28:59.302Z,146.82
2019-04-03T21:31:27.577Z,147.28
2019-04-03T21:33:55.499Z,148.65
2019-04-03T21:36:27.201Z,148.00
2019-04-03T21:38:54.390Z,147.80
2019-04-03T21:41:26.841Z,148.15
2019-04-03T21:43:55.470Z,146.18
2019-04-03T21:46:25.448Z,146.15
2019-04-03T21:48:52.682Z,146.00
2019-04-03T21:51:23.296Z,145.40
2019-04-03T21:53:56.466Z,146.15
2019-04-03T21:56:23.341Z,147.87
2019-04-03T21:58:50.380Z,147.40
2019-04-03T22:01:23.400Z,146.87
2019-04-03T22:03:51.676Z,144.62
2019-04-03T22:06:19.069Z,145.35
2019-04-03T22:08:47.617Z,145.15
2019-04-03T22:11:14.657Z,145.75
2019-04-03T22:13:42.140Z,148.38
2019-04-03T22:16:11.984Z,145.75
2019-04-03T22:18:39.289Z,147.30
2019-04-03T22:21:06.789Z,147.45
2019-04-03T22:23:35.985Z,147.57
2019-04-03T22:26:02.940Z,147.32
2019-04-03T22:28:31.184Z,146.50
2019-04-03T22:30:58.454Z,146.10
2019-04-03T22:33:27.669Z,148.43
2019-04-03T22:35:55.466Z,146.47
2019-04-03T22:38:22.738Z,147.02
2019-04-03T22:40:52.496Z,146.72
2019-04-03T22:43:19.932Z,146.62
2019-04-03T22:45:47.091Z,146.18
2019-04-03T22:48:15.224Z,147.40
2019-04-03T22:50:42.463Z,147.32
2019-04-03T22:53:11.260Z,147.85
2019-04-03T22:55:38.803Z,146.07
2019-04-03T22:58:05.859Z,147.13
2019-04-03T23:00:35.000Z,147.55
2019-04-03T23:03:02.844Z,150.65
2019-04-03T23:05:30.801Z,147.37
2019-04-03T23:07:57.844Z,150.95
2019-04-03T23:10:25.280Z,148.53
2019-04-03T23:12:52.307Z,148.90
2019-04-03T23:15:19.401Z,147.85
2019-04-03T23:17:46.537Z,149.42
2019-04-03T23:20:13.560Z,149.72
2019-04-03T23:22:40.697Z,152.82
2019-04-03T23:25:09.017Z,151.32
2019-04-03T23:27:37.949Z,151.80
2019-04-03T23:30:10.038Z,151.68
2019-04-03T23:32:37.924Z,154.07
2019-04-03T23:35:05.199Z,155.40
2019-04-03T23:37:32.256Z,152.17
2019-04-03T23:40:01.008Z,153.62
2019-04-03T23:42:29.840Z,152.57
2019-04-03T23:44:56.889Z,152.53
2019-04-03T23:47:24.015Z,154.42
2019-04-03T23:49:51.684Z,155.18
2019-04-03T23:52:19.062Z,156.05
2019-04-03T23:54:47.304Z,156.97
2019-04-03T23:57:14.349Z,155.50
2019-04-03T23:59:44.467Z,155.65
